Time;durP1;ratioP1;P1;durP2;ratioP2;P2;SDS_P1;SDS_P2;PMS_P1;PMS_P2;Temp;Humidity;BMP_temperature;BMP_pressure;BME280_temperature;BME280_humidity;BME280_pressure;Samples;Min_cycle;Max_cycle;Signal;HPM_P1;HPM_P2
2021/03/03 00:00:10;;;;;;;24.48;16.27;;;6.80;99.90;;;;;;4987015;28;20484;-78
2021/03/03 00:02:35;;;;;;;19.65;14.45;;;6.80;99.90;;;;;;4985040;28;20110;-76
2021/03/03 00:05:01;;;;;;;23.17;15.48;;;6.70;99.90;;;;;;4982738;28;20157;-76
2021/03/03 00:07:27;;;;;;;16.77;14.85;;;6.70;99.90;;;;;;4982181;28;20031;-76
2021/03/03 00:09:53;;;;;;;22.17;14.63;;;6.80;99.90;;;;;;4985517;28;20617;-76
2021/03/03 00:12:19;;;;;;;22.35;15.18;;;6.80;99.90;;;;;;4982638;28;20072;-75
2021/03/03 00:14:45;;;;;;;18.92;13.90;;;7.10;99.90;;;;;;4965612;28;20033;-76
2021/03/03 00:17:11;;;;;;;18.33;13.77;;;7.20;99.90;;;;;;4981292;28;20053;-76
2021/03/03 00:19:37;;;;;;;23.23;13.52;;;7.20;99.90;;;;;;4979119;28;20489;-75
2021/03/03 00:22:03;;;;;;;20.30;13.93;;;7.20;99.90;;;;;;4978133;28;20073;-77
2021/03/03 00:24:29;;;;;;;16.75;13.90;;;7.20;99.90;;;;;;4980117;28;20045;-76
2021/03/03 00:26:55;;;;;;;21.85;14.13;;;7.00;99.90;;;;;;4987906;28;20692;-76
2021/03/03 00:29:21;;;;;;;18.73;13.52;;;6.90;99.90;;;;;;4983091;28;20027;-76
2021/03/03 00:31:47;;;;;;;21.58;14.77;;;6.80;99.90;;;;;;4982879;28;20046;-76
2021/03/03 00:34:12;;;;;;;16.38;13.02;;;6.80;99.90;;;;;;4985344;28;20034;-76
2021/03/03 00:36:38;;;;;;;22.70;14.98;;;6.70;99.90;;;;;;4987779;28;20026;-76
2021/03/03 00:39:07;;;;;;;17.92;12.68;;;6.70;99.90;;;;;;4988191;28;20029;-76
2021/03/03 00:41:33;;;;;;;26.10;14.00;;;6.80;99.90;;;;;;4989785;28;20109;-76
2021/03/03 00:43:59;;;;;;;18.75;15.13;;;6.90;99.90;;;;;;4976625;28;20122;-76
2021/03/03 00:46:25;;;;;;;18.77;13.93;;;7.00;99.90;;;;;;4979252;28;20026;-76
2021/03/03 00:48:51;;;;;;;18.63;14.20;;;6.90;99.90;;;;;;4979021;28;20523;-76
2021/03/03 00:51:17;;;;;;;20.05;13.98;;;6.80;99.90;;;;;;4986286;28;20076;-75
2021/03/03 00:53:45;;;;;;;22.05;14.25;;;6.80;99.90;;;;;;4988308;28;20105;-75
2021/03/03 00:56:11;;;;;;;18.70;14.30;;;6.60;99.90;;;;;;4982035;28;20027;-76
2021/03/03 00:58:37;;;;;;;20.25;13.90;;;6.60;99.90;;;;;;4981920;28;20038;-75
2021/03/03 01:01:05;;;;;;;17.85;14.45;;;6.50;99.90;;;;;;4984065;28;20034;-75
2021/03/03 01:03:31;;;;;;;19.83;13.13;;;6.50;99.90;;;;;;4982225;28;20126;-76
2021/03/03 01:05:58;;;;;;;20.08;13.95;;;6.50;99.90;;;;;;4985175;28;20046;-75
2021/03/03 01:08:23;;;;;;;20.75;14.52;;;6.50;99.90;;;;;;4982261;28;20022;-76
2021/03/03 01:10:49;;;;;;;19.60;14.32;;;6.40;99.90;;;;;;4990354;28;20122;-78
2021/03/03 01:13:15;;;;;;;21.33;13.98;;;6.20;99.90;;;;;;4984012;28;20070;-75
2021/03/03 01:15:41;;;;;;;18.85;15.13;;;6.10;99.90;;;;;;4982645;28;20556;-76
2021/03/03 01:18:07;;;;;;;19.27;13.15;;;6.10;99.90;;;;;;4982451;28;20157;-75
2021/03/03 01:20:36;;;;;;;19.13;14.82;;;6.00;99.90;;;;;;4976726;28;20054;-75
2021/03/03 01:23:02;;;;;;;17.60;13.77;;;6.00;99.90;;;;;;4976964;28;20169;-76
2021/03/03 01:25:31;;;;;;;20.88;13.98;;;5.90;99.90;;;;;;4979599;28;20034;-76
2021/03/03 01:27:57;;;;;;;20.25;14.02;;;6.00;99.90;;;;;;4983419;28;20022;-75
2021/03/03 01:30:23;;;;;;;20.58;16.00;;;5.90;99.90;;;;;;4975235;28;20026;-75
2021/03/03 01:32:49;;;;;;;20.85;14.07;;;5.90;99.90;;;;;;4983964;28;20061;-74
2021/03/03 01:35:15;;;;;;;18.30;14.90;;;5.90;99.90;;;;;;4981583;28;20057;-75
2021/03/03 01:37:41;;;;;;;17.52;13.45;;;5.90;99.90;;;;;;4983112;28;20030;-74
2021/03/03 01:40:19;;;;;;;19.98;13.95;;;6.00;99.90;;;;;;4976308;28;20033;-76
2021/03/03 01:43:35;;;;;;;22.55;14.82;;;5.90;99.90;;;;;;4982295;28;20401;-76
2021/03/03 01:46:00;;;;;;;16.40;12.32;;;5.90;99.90;;;;;;4944855;28;20031;-76
2021/03/03 01:48:27;;;;;;;19.20;13.48;;;5.90;99.90;;;;;;4974266;28;20035;-76
2021/03/03 01:50:53;;;;;;;25.63;15.25;;;5.90;99.90;;;;;;4970087;28;20035;-75
2021/03/03 01:53:22;;;;;;;19.92;13.32;;;5.80;99.90;;;;;;4977345;28;20027;-78
2021/03/03 01:55:48;;;;;;;16.08;13.70;;;5.80;99.90;;;;;;4981112;28;20094;-76
2021/03/03 01:58:14;;;;;;;16.65;13.27;;;5.80;99.90;;;;;;4982363;28;20034;-76
2021/03/03 02:00:40;;;;;;;18.85;13.25;;;5.70;99.90;;;;;;4983258;28;20026;-75
2021/03/03 02:03:06;;;;;;;20.70;13.90;;;5.70;99.90;;;;;;4986091;28;20033;-76
2021/03/03 02:05:32;;;;;;;18.63;13.73;;;5.80;99.90;;;;;;4987108;28;20055;-75
2021/03/03 02:08:15;;;;;;;21.65;14.13;;;5.80;99.90;;;;;;4985389;28;20030;-76
2021/03/03 02:10:47;;;;;;;;;;;5.80;99.90;;;;;;4982444;28;20025;-74
2021/03/03 02:13:34;;;;;;;17.95;12.45;;;5.80;99.90;;;;;;4986113;28;19918;-75
2021/03/03 02:16:08;;;;;;;18.23;13.02;;;5.90;99.90;;;;;;4980711;28;20026;-75
2021/03/03 02:18:42;;;;;;;14.05;12.25;;;5.80;99.90;;;;;;4974416;28;21933;-75
2021/03/03 02:21:09;;;;;;;16.83;13.82;;;5.70;99.90;;;;;;4974457;28;20472;-77
2021/03/03 02:23:58;;;;;;;16.45;11.35;;;5.60;99.90;;;;;;4977985;28;20033;-74
2021/03/03 02:26:34;;;;;;;18.63;11.77;;;5.70;99.90;;;;;;4981957;28;20030;-75
2021/03/03 02:29:06;;;;;;;14.60;11.77;;;5.70;99.90;;;;;;4973318;28;20086;-76
2021/03/03 02:31:33;;;;;;;10.32;8.25;;;5.60;99.90;;;;;;4977172;28;20041;-75
2021/03/03 02:34:01;;;;;;;16.08;11.75;;;5.50;99.90;;;;;;4984740;28;20027;-75
2021/03/03 02:36:28;;;;;;;15.43;12.05;;;5.50;99.90;;;;;;4986535;28;20030;-76
2021/03/03 02:39:05;;;;;;;12.85;10.55;;;5.50;99.90;;;;;;4981387;28;20076;-75
2021/03/03 02:41:33;;;;;;;13.25;10.27;;;5.60;99.90;;;;;;4982054;28;20433;-74
2021/03/03 02:44:01;;;;;;;15.05;12.30;;;5.90;99.90;;;;;;4984648;28;20027;-76
2021/03/03 02:46:28;;;;;;;14.60;11.63;;;5.90;99.90;;;;;;4982181;28;20042;-75
2021/03/03 02:48:55;;;;;;;14.80;11.15;;;5.90;99.90;;;;;;4982544;28;20053;-75
2021/03/03 02:51:21;;;;;;;14.93;11.32;;;6.10;99.90;;;;;;4975531;28;20113;-75
2021/03/03 02:53:46;;;;;;;13.73;10.43;;;6.10;99.90;;;;;;4982285;28;20077;-77
2021/03/03 02:56:12;;;;;;;14.60;11.25;;;6.20;99.90;;;;;;4980915;28;20038;-76
2021/03/03 02:58:38;;;;;;;17.50;11.13;;;6.10;99.90;;;;;;4983984;28;20062;-76
2021/03/03 03:01:12;;;;;;;13.38;10.38;;;6.10;99.90;;;;;;4981984;28;20054;-75
2021/03/03 03:03:47;;;;;;;11.32;9.95;;;6.00;99.90;;;;;;4981684;28;20022;-75
2021/03/03 03:06:23;;;;;;;15.10;11.00;;;6.10;99.90;;;;;;4984922;28;20066;-76
2021/03/03 03:08:52;;;;;;;11.65;9.63;;;6.00;99.90;;;;;;4979237;28;20054;-75
2021/03/03 03:11:25;;;;;;;12.65;8.93;;;6.00;99.90;;;;;;4985430;28;20018;-75
2021/03/03 03:13:54;;;;;;;16.52;10.93;;;6.10;99.90;;;;;;4985771;28;20038;-76
2021/03/03 03:16:22;;;;;;;14.65;9.38;;;6.10;99.90;;;;;;4981026;28;20585;-75
2021/03/03 03:18:55;;;;;;;15.13;9.82;;;6.00;99.90;;;;;;4977387;28;20378;-76
2021/03/03 03:21:24;;;;;;;13.77;10.07;;;6.00;99.90;;;;;;4984303;28;20023;-75
2021/03/03 03:23:50;;;;;;;13.95;9.07;;;6.10;99.90;;;;;;4984281;28;20034;-76
2021/03/03 03:26:19;;;;;;;15.20;9.98;;;6.00;99.90;;;;;;4976703;28;20637;-78
2021/03/03 03:28:45;;;;;;;16.80;10.13;;;6.00;99.90;;;;;;4978868;28;20023;-75
2021/03/03 03:31:11;;;;;;;11.10;9.13;;;6.00;99.90;;;;;;4989356;28;20073;-75
2021/03/03 03:33:38;;;;;;;12.02;9.25;;;6.10;99.90;;;;;;4977769;28;20026;-75
2021/03/03 03:36:04;;;;;;;11.93;9.82;;;6.10;99.90;;;;;;4981791;28;20042;-76
2021/03/03 03:38:32;;;;;;;13.00;9.35;;;6.00;99.90;;;;;;4993822;28;20054;-76
2021/03/03 03:41:03;;;;;;;15.10;9.15;;;6.10;99.90;;;;;;4981947;28;20022;-75
2021/03/03 03:43:31;;;;;;;13.65;9.95;;;6.10;99.90;;;;;;4984768;28;20058;-75
2021/03/03 03:45:57;;;;;;;15.10;9.98;;;6.00;99.90;;;;;;4997705;28;20488;-76
2021/03/03 03:48:23;;;;;;;12.30;10.45;;;6.00;99.90;;;;;;4989253;28;20042;-75
2021/03/03 03:50:51;;;;;;;12.38;10.15;;;5.80;99.90;;;;;;4977922;28;20064;-75
2021/03/03 03:53:18;;;;;;;11.60;8.18;;;5.80;99.90;;;;;;4974248;28;20031;-76
2021/03/03 03:55:44;;;;;;;20.52;9.10;;;5.90;99.90;;;;;;4987830;28;20054;-76
2021/03/03 03:58:10;;;;;;;11.23;8.85;;;5.90;99.90;;;;;;4985729;28;20037;-75
2021/03/03 04:00:37;;;;;;;19.10;9.45;;;5.90;99.90;;;;;;4982362;28;20031;-75
2021/03/03 04:03:03;;;;;;;15.85;9.88;;;5.80;99.90;;;;;;4987569;28;20042;-76
2021/03/03 04:05:29;;;;;;;13.23;9.32;;;5.80;99.90;;;;;;4989492;28;20537;-76
2021/03/03 04:07:55;;;;;;;12.82;10.05;;;5.80;99.90;;;;;;4990448;28;20022;-76
2021/03/03 04:10:26;;;;;;;14.63;9.68;;;5.80;99.90;;;;;;4979009;28;20025;-76
2021/03/03 04:12:52;;;;;;;14.38;10.55;;;5.90;99.90;;;;;;4981245;28;20026;-76
2021/03/03 04:15:19;;;;;;;12.23;8.75;;;5.70;99.90;;;;;;4977521;28;20034;-75
2021/03/03 04:17:45;;;;;;;11.85;9.63;;;5.80;99.90;;;;;;4984090;28;20034;-75
2021/03/03 04:20:12;;;;;;;14.07;10.65;;;5.70;99.90;;;;;;4978380;28;20026;-76
2021/03/03 04:22:38;;;;;;;16.83;10.15;;;5.70;99.90;;;;;;4982142;28;20046;-75
2021/03/03 04:25:10;;;;;;;15.02;10.00;;;5.70;99.90;;;;;;4985058;28;20019;-75
2021/03/03 04:27:36;;;;;;;14.30;8.68;;;5.80;99.90;;;;;;4978534;28;20027;-76
2021/03/03 04:30:07;;;;;;;18.45;9.77;;;5.80;99.90;;;;;;4985906;28;20081;-76
2021/03/03 04:32:36;;;;;;;10.93;8.40;;;5.90;99.90;;;;;;4985619;28;20114;-77
2021/03/03 04:35:04;;;;;;;14.48;9.98;;;5.80;99.90;;;;;;4984742;28;20027;-74
2021/03/03 04:37:30;;;;;;;13.32;10.40;;;5.80;99.90;;;;;;4975510;28;20026;-76
2021/03/03 04:39:56;;;;;;;15.75;10.27;;;5.70;99.90;;;;;;4980025;28;20030;-76
2021/03/03 04:42:22;;;;;;;10.68;9.48;;;5.60;99.90;;;;;;4987090;28;20366;-76
2021/03/03 04:44:48;;;;;;;13.82;10.07;;;5.60;99.90;;;;;;4985643;28;20489;-76
2021/03/03 04:47:14;;;;;;;13.82;10.07;;;5.50;99.90;;;;;;4991655;28;20025;-74
2021/03/03 04:49:40;;;;;;;14.00;8.88;;;5.70;99.90;;;;;;4987852;28;20114;-76
2021/03/03 04:52:06;;;;;;;19.02;11.18;;;5.70;99.90;;;;;;4985974;28;20500;-75
2021/03/03 04:54:34;;;;;;;13.30;10.15;;;5.80;99.90;;;;;;4978568;28;20034;-75
2021/03/03 04:57:00;;;;;;;16.98;9.05;;;5.80;99.90;;;;;;4987029;28;20026;-75
2021/03/03 04:59:26;;;;;;;16.60;11.02;;;5.70;99.90;;;;;;4994510;28;20034;-75
2021/03/03 05:01:52;;;;;;;16.25;10.95;;;5.50;99.90;;;;;;4978474;28;20039;-75
2021/03/03 05:04:18;;;;;;;12.93;10.68;;;5.50;99.90;;;;;;4975348;28;20026;-75
2021/03/03 05:06:43;;;;;;;12.10;9.63;;;5.40;99.90;;;;;;4982685;28;20031;-76
2021/03/03 05:09:09;;;;;;;13.57;9.68;;;5.30;99.90;;;;;;4976314;28;20057;-76
2021/03/03 05:11:35;;;;;;;15.85;10.10;;;5.20;99.90;;;;;;4984999;28;20392;-75
2021/03/03 05:14:01;;;;;;;18.58;9.52;;;5.20;99.90;;;;;;4990961;28;20041;-75
2021/03/03 05:16:27;;;;;;;19.98;9.73;;;5.10;99.90;;;;;;4984167;28;20030;-75
2021/03/03 05:18:53;;;;;;;12.50;11.00;;;5.00;99.90;;;;;;4977541;28;20031;-76
2021/03/03 05:21:19;;;;;;;16.23;10.23;;;5.00;99.90;;;;;;4976233;28;21039;-77
2021/03/03 05:23:45;;;;;;;18.80;10.30;;;4.80;99.90;;;;;;4979094;28;20030;-76
2021/03/03 05:26:12;;;;;;;15.23;10.05;;;4.90;99.90;;;;;;4981986;28;20046;-75
2021/03/03 05:28:38;;;;;;;17.98;11.02;;;5.00;99.90;;;;;;4987600;28;20026;-75
2021/03/03 05:31:04;;;;;;;16.88;10.18;;;5.10;99.90;;;;;;4978233;28;20393;-76
2021/03/03 05:33:35;;;;;;;17.90;10.75;;;5.10;99.90;;;;;;4980655;28;20019;-76
2021/03/03 05:36:04;;;;;;;13.43;11.05;;;5.10;99.90;;;;;;4984551;28;20085;-75
2021/03/03 05:38:35;;;;;;;16.10;10.63;;;5.10;99.90;;;;;;4978967;28;20489;-75
2021/03/03 05:41:01;;;;;;;15.40;9.60;;;5.10;99.90;;;;;;4975089;28;20038;-74
2021/03/03 05:43:30;;;;;;;14.95;10.57;;;5.10;99.90;;;;;;4980654;28;20365;-76
2021/03/03 05:45:58;;;;;;;15.05;9.45;;;5.10;99.90;;;;;;4980382;28;20054;-75
2021/03/03 05:48:30;;;;;;;14.82;11.60;;;5.20;99.90;;;;;;4981344;28;20019;-75
2021/03/03 05:51:02;;;;;;;16.60;10.82;;;5.40;99.90;;;;;;4974822;28;20038;-75
2021/03/03 05:53:32;;;;;;;;;;;5.40;99.90;;;;;;4971836;28;20070;-75
2021/03/03 05:56:03;;;;;;;17.35;11.15;;;5.40;99.90;;;;;;4971783;28;19909;-75
2021/03/03 05:58:34;;;;;;;15.60;9.48;;;5.40;99.90;;;;;;4984002;28;20098;-75
2021/03/03 06:01:02;;;;;;;13.27;8.45;;;5.30;99.90;;;;;;4971242;28;20557;-76
2021/03/03 06:03:28;;;;;;;16.85;10.27;;;5.20;99.90;;;;;;4988740;28;20113;-75
2021/03/03 06:05:55;;;;;;;14.40;11.10;;;5.10;99.90;;;;;;4976510;28;20027;-75
2021/03/03 06:08:26;;;;;;;15.63;10.40;;;5.00;99.90;;;;;;4982629;28;20015;-74
2021/03/03 06:10:52;;;;;;;17.83;10.57;;;5.00;99.90;;;;;;4986884;28;20035;-75
2021/03/03 06:13:19;;;;;;;15.35;10.63;;;5.00;99.90;;;;;;4988750;28;20026;-75
2021/03/03 06:15:46;;;;;;;18.52;11.90;;;5.10;99.90;;;;;;4978641;28;20599;-75
2021/03/03 06:18:13;;;;;;;21.30;12.07;;;5.10;99.90;;;;;;4979308;28;20065;-75
2021/03/03 06:20:47;;;;;;;20.85;10.23;;;5.20;99.90;;;;;;4984818;28;20030;-76
2021/03/03 06:23:30;;;;;;;16.65;11.60;;;5.30;99.90;;;;;;4990476;28;20030;-75
2021/03/03 06:25:56;;;;;;;18.00;12.13;;;5.50;99.90;;;;;;4987192;28;20033;-75
2021/03/03 06:28:32;;;;;;;23.23;12.55;;;5.50;99.90;;;;;;4990642;28;20026;-74
2021/03/03 06:30:59;;;;;;;18.20;11.38;;;5.40;99.90;;;;;;4982975;28;20062;-75
2021/03/03 06:33:25;;;;;;;17.80;12.63;;;5.50;99.90;;;;;;4980663;28;20026;-76
2021/03/03 06:35:52;;;;;;;18.23;12.50;;;5.50;99.90;;;;;;4975704;28;20034;-76
2021/03/03 06:38:29;;;;;;;23.33;12.57;;;5.70;99.90;;;;;;4980422;28;20030;-75
2021/03/03 06:41:01;;;;;;;20.25;12.32;;;6.00;99.90;;;;;;4979538;28;20038;-75
2021/03/03 06:43:31;;;;;;;20.05;11.80;;;6.30;99.90;;;;;;4982908;28;20092;-75
2021/03/03 06:46:15;;;;;;;18.40;10.85;;;6.60;99.90;;;;;;4990300;28;20022;-75
2021/03/03 06:48:43;;;;;;;18.77;9.20;;;6.70;99.90;;;;;;4980375;28;20404;-76
2021/03/03 06:51:25;;;;;;;17.55;11.80;;;6.80;99.90;;;;;;4978478;28;20019;-76
2021/03/03 06:53:53;;;;;;;20.58;11.48;;;6.90;99.90;;;;;;4989831;28;20468;-76
2021/03/03 06:56:40;;;;;;;18.40;10.85;;;7.00;99.90;;;;;;4978699;28;20030;-76
2021/03/03 06:59:15;;;;;;;24.08;12.40;;;7.10;99.90;;;;;;4985491;28;20386;-76
2021/03/03 07:01:46;;;;;;;18.58;11.05;;;7.10;99.90;;;;;;4985160;28;20034;-76
2021/03/03 07:04:23;;;;;;;17.10;9.90;;;7.10;99.90;;;;;;4981153;28;20082;-76
2021/03/03 07:06:49;;;;;;;17.25;10.25;;;7.10;99.90;;;;;;4973800;28;20384;-75
2021/03/03 07:09:15;;;;;;;22.65;12.38;;;7.20;99.90;;;;;;4978858;28;20023;-75
2021/03/03 07:11:42;;;;;;;15.20;11.50;;;7.30;99.90;;;;;;4986848;28;20034;-75
2021/03/03 07:14:21;;;;;;;20.02;13.00;;;7.50;99.90;;;;;;4981036;28;20018;-76
2021/03/03 07:17:02;;;;;;;26.45;16.20;;;7.70;99.90;;;;;;4984149;28;20030;-76
2021/03/03 07:19:28;;;;;;;21.40;13.30;;;7.90;99.90;;;;;;4978588;28;20023;-76
2021/03/03 07:21:54;;;;;;;21.10;13.88;;;8.20;99.90;;;;;;4987474;28;20037;-76
2021/03/03 07:24:23;;;;;;;14.80;12.35;;;8.30;99.90;;;;;;4979670;28;20022;-76
2021/03/03 07:26:49;;;;;;;12.38;11.02;;;8.40;99.90;;;;;;4977079;28;20058;-76
2021/03/03 07:29:16;;;;;;;25.98;13.30;;;8.40;99.90;;;;;;4976533;28;20054;-75
2021/03/03 07:31:42;;;;;;;25.65;12.85;;;8.60;99.90;;;;;;4461759;23;19233131;-76
2021/03/03 07:34:08;;;;;;;16.02;12.23;;;8.70;99.90;;;;;;4958296;28;20030;-77
2021/03/03 07:36:48;;;;;;;19.67;12.50;;;8.80;99.90;;;;;;4959378;28;20332;-76
2021/03/03 07:39:16;;;;;;;15.98;12.00;;;8.90;99.90;;;;;;4953284;28;20441;-77
2021/03/03 07:41:44;;;;;;;27.60;12.18;;;9.00;99.90;;;;;;4962899;28;20031;-76
2021/03/03 07:44:19;;;;;;;19.70;12.25;;;9.10;99.90;;;;;;4956212;28;20110;-77
2021/03/03 07:46:48;;;;;;;16.40;11.95;;;9.40;99.90;;;;;;4965722;28;20117;-77
2021/03/03 07:49:23;;;;;;;15.15;11.88;;;9.50;99.90;;;;;;4952824;28;20048;-77
2021/03/03 07:51:49;;;;;;;15.52;12.88;;;9.60;99.90;;;;;;4966541;28;20023;-76
2021/03/03 07:54:15;;;;;;;26.08;15.25;;;9.70;99.90;;;;;;4957368;29;20023;-77
2021/03/03 07:56:43;;;;;;;15.50;12.18;;;10.00;99.90;;;;;;4955211;28;20040;-77
2021/03/03 07:59:10;;;;;;;16.30;11.80;;;10.20;99.90;;;;;;4960092;28;20109;-77
2021/03/03 08:01:37;;;;;;;14.10;10.20;;;10.10;99.90;;;;;;4969363;28;20066;-76
2021/03/03 08:04:03;;;;;;;17.85;10.98;;;10.10;99.90;;;;;;4968641;28;20394;-77
2021/03/03 08:06:35;;;;;;;16.65;10.35;;;10.10;99.90;;;;;;4943067;29;20031;-78
2021/03/03 08:09:08;;;;;;;;;;;10.20;99.90;;;;;;4965519;28;20031;-77
2021/03/03 08:11:33;;;;;;;;;;;10.10;99.90;;;;;;4958893;28;20357;-77
2021/03/03 08:14:23;;;;;;;13.20;9.25;;;10.20;99.90;;;;;;4964028;28;19910;-79
2021/03/03 08:16:56;;;;;;;17.55;10.98;;;10.30;99.90;;;;;;4969573;28;20055;-77
2021/03/03 08:19:42;;;;;;;20.88;9.65;;;10.40;99.90;;;;;;4957052;28;20019;-77
2021/03/03 08:22:08;;;;;;;14.85;10.05;;;10.50;99.90;;;;;;4949870;28;20037;-77
2021/03/03 08:24:38;;;;;;;15.30;10.15;;;10.90;99.90;;;;;;4960361;28;20110;-77
2021/03/03 08:27:30;;;;;;;19.05;11.73;;;10.90;99.90;;;;;;4955722;28;20035;-78
2021/03/03 08:30:16;;;;;;;16.92;12.15;;;11.00;99.90;;;;;;4957146;28;20062;-79
2021/03/03 08:32:42;;;;;;;16.13;13.77;;;11.00;99.90;;;;;;4963641;28;20085;-78
2021/03/03 08:35:10;;;;;;;26.88;16.10;;;11.10;99.90;;;;;;4960107;28;20023;-77
2021/03/03 08:37:38;;;;;;;25.02;18.65;;;11.10;99.90;;;;;;4967297;28;20024;-76
2021/03/03 08:40:26;;;;;;;25.42;17.15;;;11.20;99.90;;;;;;4956446;28;20061;-78
2021/03/03 08:42:52;;;;;;;31.65;17.33;;;11.20;99.90;;;;;;4953833;28;20039;-79
2021/03/03 08:45:20;;;;;;;21.65;14.57;;;11.30;99.90;;;;;;4949243;29;20035;-79
2021/03/03 08:47:53;;;;;;;23.65;15.13;;;11.30;99.90;;;;;;4953109;28;20043;-77
2021/03/03 08:50:30;;;;;;;18.50;13.23;;;11.20;99.90;;;;;;4968059;28;20481;-78
2021/03/03 08:53:43;;;;;;;22.98;14.07;;;11.20;99.90;;;;;;4966980;28;20059;-77
2021/03/03 08:56:37;;;;;;;23.05;11.95;;;11.00;99.90;;;;;;4950896;28;20039;-78
2021/03/03 08:59:32;;;;;;;25.88;11.00;;;10.90;99.90;;;;;;4963565;28;20501;-76
2021/03/03 09:02:07;;;;;;;31.60;10.20;;;10.70;99.90;;;;;;4956631;28;20130;-76
2021/03/03 09:04:45;;;;;;;20.05;12.63;;;10.70;99.90;;;;;;4974387;28;20026;-78
2021/03/03 09:07:25;;;;;;;22.00;13.63;;;10.60;99.90;;;;;;4964650;28;20023;-77
2021/03/03 09:09:56;;;;;;;20.00;13.15;;;10.60;99.90;;;;;;4967067;28;20077;-77
2021/03/03 09:12:31;;;;;;;21.02;12.65;;;10.60;99.90;;;;;;4970854;28;20023;-77
2021/03/03 09:14:59;;;;;;;25.05;14.32;;;10.60;99.90;;;;;;4964051;28;20023;-77
2021/03/03 09:17:28;;;;;;;26.25;14.25;;;10.60;99.90;;;;;;4981169;28;20031;-77
2021/03/03 09:20:00;;;;;;;22.88;14.25;;;10.70;99.90;;;;;;4959380;28;20037;-81
2021/03/03 09:22:55;;;;;;;27.20;15.25;;;10.80;99.90;;;;;;4975905;28;20027;-77
2021/03/03 09:25:24;;;;;;;21.90;14.13;;;10.90;99.90;;;;;;4958587;28;20047;-77
2021/03/03 09:28:01;;;;;;;24.60;14.70;;;11.00;99.90;;;;;;4969672;28;20023;-77
2021/03/03 09:30:36;;;;;;;19.27;13.00;;;11.10;99.90;;;;;;4970851;28;20036;-78
2021/03/03 09:33:08;;;;;;;22.45;15.27;;;11.30;99.90;;;;;;4979120;28;20035;-78
2021/03/03 09:35:37;;;;;;;;;;;11.30;99.90;;;;;;4963719;28;20055;-76
2021/03/03 09:38:03;;;;;;;18.90;13.85;;;11.40;99.90;;;;;;4983822;28;19910;-77
2021/03/03 09:40:35;;;;;;;27.67;14.48;;;11.50;99.90;;;;;;4981006;28;20032;-77
2021/03/03 09:43:02;;;;;;;19.45;13.95;;;11.50;99.90;;;;;;4966970;28;20027;-77
2021/03/03 09:45:28;;;;;;;20.95;12.68;;;11.40;99.90;;;;;;4979221;28;20034;-76
2021/03/03 09:47:56;;;;;;;21.23;13.35;;;11.40;99.90;;;;;;4967465;28;20422;-76
2021/03/03 09:50:25;;;;;;;18.75;14.52;;;11.40;99.90;;;;;;4964148;28;20047;-76
2021/03/03 09:52:53;;;;;;;16.08;13.40;;;11.40;99.90;;;;;;4948219;28;20066;-77
2021/03/03 09:55:25;;;;;;;15.13;12.18;;;11.30;99.90;;;;;;4955033;28;20038;-76
2021/03/03 09:57:56;;;;;;;17.35;13.43;;;11.20;99.90;;;;;;4969965;28;20039;-77
2021/03/03 10:00:28;;;;;;;21.60;13.70;;;11.30;99.90;;;;;;4962844;28;20034;-77
2021/03/03 10:03:00;;;;;;;14.05;11.95;;;11.10;99.90;;;;;;4967201;28;20036;-76
2021/03/03 10:05:26;;;;;;;;;;;11.00;99.90;;;;;;4968331;28;20031;-77
2021/03/03 10:07:59;;;;;;;17.08;13.57;;;10.90;99.90;;;;;;4971437;28;20331;-77
2021/03/03 10:10:27;;;;;;;18.83;12.57;;;10.90;99.90;;;;;;4968158;28;20620;-78
2021/03/03 10:12:53;;;;;;;24.05;13.25;;;10.80;99.90;;;;;;4959422;28;20027;-78
2021/03/03 10:15:33;;;;;;;24.40;12.52;;;10.80;99.90;;;;;;4967474;28;20035;-77
2021/03/03 10:18:02;;;;;;;18.55;14.32;;;10.80;99.90;;;;;;4962707;28;20038;-77
2021/03/03 10:20:49;;;;;;;18.55;12.57;;;10.80;99.90;;;;;;4952348;28;20028;-75
2021/03/03 10:23:18;;;;;;;18.83;14.63;;;10.70;99.90;;;;;;4964347;28;20024;-78
2021/03/03 10:25:59;;;;;;;19.95;14.10;;;10.70;99.90;;;;;;4948465;28;20032;-77
2021/03/03 10:28:27;;;;;;;21.55;13.90;;;10.70;99.90;;;;;;4964100;28;20079;-79
2021/03/03 10:31:02;;;;;;;18.05;14.13;;;10.80;99.90;;;;;;4970385;28;20023;-77
2021/03/03 10:33:40;;;;;;;17.15;14.30;;;10.90;99.90;;;;;;4971739;28;20086;-76
2021/03/03 10:36:18;;;;;;;16.60;14.15;;;11.10;99.90;;;;;;4961201;28;20045;-78
2021/03/03 10:38:46;;;;;;;17.90;14.18;;;11.20;99.90;;;;;;4979797;28;20053;-78
2021/03/03 10:41:33;;;;;;;21.05;14.82;;;11.30;99.90;;;;;;4973018;28;20073;-77
2021/03/03 10:44:01;;;;;;;14.30;12.48;;;11.40;99.90;;;;;;4969382;28;20038;-78
2021/03/03 10:46:27;;;;;;;17.33;11.55;;;11.50;99.90;;;;;;4962300;28;20114;-78
2021/03/03 10:48:55;;;;;;;17.95;13.73;;;11.60;99.90;;;;;;4973018;28;20015;-79
2021/03/03 10:51:34;;;;;;;19.92;12.60;;;11.70;99.90;;;;;;4961791;28;20027;-77
2021/03/03 10:54:00;;;;;;;17.52;12.57;;;11.80;99.90;;;;;;4973168;28;20019;-80
2021/03/03 10:56:40;;;;;;;17.40;13.05;;;11.80;99.90;;;;;;4959890;28;20393;-79
2021/03/03 10:59:25;;;;;;;17.05;13.88;;;11.90;99.90;;;;;;4954933;28;20033;-79
2021/03/03 11:02:25;;;;;;;21.08;13.23;;;11.90;99.90;;;;;;4961855;28;20028;-79
2021/03/03 11:04:46;;;;;;;15.63;11.98;;;12.00;99.90;;;;;;4963541;28;20446;-70
2021/03/03 11:07:13;;;;;;;19.27;11.52;;;12.10;99.90;;;;;;4950225;28;20482;-71
2021/03/03 11:09:39;;;;;;;17.48;11.70;;;12.10;99.90;;;;;;4950223;28;20455;-70
2021/03/03 11:12:07;;;;;;;15.15;13.30;;;12.20;99.90;;;;;;4956200;28;20030;-71
2021/03/03 11:14:34;;;;;;;18.70;12.10;;;12.20;99.90;;;;;;4944647;28;20055;-71
2021/03/03 11:17:01;;;;;;;16.95;12.30;;;12.30;99.90;;;;;;4953793;28;20475;-70
2021/03/03 11:19:28;;;;;;;23.08;13.05;;;12.40;99.90;;;;;;4960526;28;20034;-70
2021/03/03 11:21:55;;;;;;;15.50;11.88;;;12.60;99.90;;;;;;4951340;28;20393;-77
2021/03/03 11:24:22;;;;;;;19.15;13.85;;;12.60;99.90;;;;;;4956538;28;20030;-77
2021/03/03 11:26:48;;;;;;;17.65;12.80;;;12.60;99.90;;;;;;4966783;28;20078;-77
2021/03/03 11:29:15;;;;;;;16.80;13.45;;;12.60;99.90;;;;;;4970323;28;20046;-77
2021/03/03 11:31:42;;;;;;;20.33;14.00;;;12.60;99.90;;;;;;4958833;28;20632;-77
2021/03/03 11:34:08;;;;;;;17.52;13.20;;;12.60;99.90;;;;;;4962327;28;20105;-77
2021/03/03 11:36:35;;;;;;;15.63;13.35;;;12.50;99.90;;;;;;4964428;28;20027;-77
2021/03/03 11:39:01;;;;;;;17.95;14.85;;;12.40;99.90;;;;;;4958881;28;20038;-77
2021/03/03 11:41:27;;;;;;;25.30;15.15;;;12.30;99.90;;;;;;4958833;28;20044;-77
2021/03/03 11:43:53;;;;;;;19.25;15.07;;;12.50;99.90;;;;;;4951805;28;20023;-77
2021/03/03 11:46:19;;;;;;;22.13;15.68;;;12.40;99.90;;;;;;4962332;28;20109;-77
2021/03/03 11:48:45;;;;;;;20.05;14.20;;;12.40;99.90;;;;;;4949682;28;20522;-77
2021/03/03 11:51:11;;;;;;;20.45;15.38;;;12.50;99.90;;;;;;4961660;28;20085;-77
2021/03/03 11:53:37;;;;;;;22.33;16.67;;;12.50;99.90;;;;;;4964625;28;20466;-76
2021/03/03 11:56:03;;;;;;;22.48;15.80;;;12.50;99.90;;;;;;4955521;28;20035;-77
2021/03/03 11:58:30;;;;;;;25.00;15.60;;;12.40;99.90;;;;;;4954370;28;20482;-76
2021/03/03 12:00:56;;;;;;;22.10;14.68;;;12.50;99.90;;;;;;4938707;28;20038;-76
2021/03/03 12:03:22;;;;;;;23.23;16.33;;;12.50;99.90;;;;;;4936766;28;20034;-76
2021/03/03 12:05:48;;;;;;;19.35;15.45;;;12.40;99.90;;;;;;4947331;28;20086;-76
2021/03/03 12:08:14;;;;;;;20.48;15.82;;;12.40;99.90;;;;;;4970273;28;20106;-75
2021/03/03 12:10:40;;;;;;;23.38;15.65;;;12.40;99.90;;;;;;4930205;28;20070;-76
2021/03/03 12:13:06;;;;;;;22.17;15.13;;;12.40;99.90;;;;;;4960944;28;20098;-76
2021/03/03 12:15:32;;;;;;;24.60;17.00;;;12.40;99.90;;;;;;4947473;28;20028;-75
2021/03/03 12:17:58;;;;;;;22.88;16.60;;;12.50;99.90;;;;;;4964672;28;20027;-76
2021/03/03 12:20:27;;;;;;;22.15;16.70;;;12.40;99.90;;;;;;4962095;28;20105;-77
2021/03/03 12:22:53;;;;;;;19.13;15.65;;;12.50;99.90;;;;;;4949604;28;20023;-75
2021/03/03 12:25:19;;;;;;;19.75;16.08;;;12.50;99.90;;;;;;4953577;28;20028;-76
2021/03/03 12:27:45;;;;;;;22.67;17.38;;;12.40;99.90;;;;;;4969722;28;20031;-76
2021/03/03 12:30:12;;;;;;;22.75;17.38;;;12.40;99.90;;;;;;4951695;28;20063;-82
2021/03/03 12:32:37;;;;;;;24.65;18.70;;;12.40;99.90;;;;;;4942589;29;20024;-76
2021/03/03 12:35:05;;;;;;;30.48;18.70;;;12.50;99.90;;;;;;4946900;29;20027;-76
2021/03/03 12:37:30;;;;;;;30.10;20.85;;;12.50;99.90;;;;;;4954628;29;20027;-76
2021/03/03 12:39:56;;;;;;;28.25;19.40;;;12.50;99.90;;;;;;4953818;29;20038;-76
2021/03/03 12:42:22;;;;;;;27.88;19.65;;;12.60;99.90;;;;;;4953666;29;20034;-76
2021/03/03 12:44:49;;;;;;;25.27;18.58;;;12.50;99.90;;;;;;4952859;29;20066;-76
2021/03/03 12:47:16;;;;;;;25.85;18.65;;;12.60;99.90;;;;;;4956782;28;20027;-76